Time;durP1;ratioP1;P1;durP2;ratioP2;P2;SDS_P1;SDS_P2;PMS_P1;PMS_P2;Temp;Humidity;BMP_temperature;BMP_pressure;BME280_temperature;BME280_humidity;BME280_pressure;Samples;Min_cycle;Max_cycle;Signal;HPM_P1;HPM_P2
2024/01/21 00:02:21;;;;;;;9.83;7.30;;;;;;;-0.67;64.07;102272.38;5010034;28;20030;-69
2024/01/21 00:04:47;;;;;;;13.75;6.90;;;;;;;-0.70;64.22;102267.13;5010616;28;20025;-69
2024/01/21 00:07:12;;;;;;;11.30;7.57;;;;;;;-0.76;63.68;102267.94;5009362;28;20121;-69
2024/01/21 00:09:38;;;;;;;8.93;6.87;;;;;;;-0.77;63.78;102257.47;5008850;28;20463;-69
2024/01/21 00:12:03;;;;;;;9.10;7.87;;;;;;;-0.79;65.59;102254.88;5008840;28;20061;-69
2024/01/21 00:14:29;;;;;;;9.53;7.60;;;;;;;-0.83;64.31;102258.31;5009733;28;20046;-69
2024/01/21 00:16:54;;;;;;;8.40;7.43;;;;;;;-0.85;65.07;102252.22;4995791;28;20482;-69
2024/01/21 00:19:20;;;;;;;7.70;6.70;;;;;;;-0.88;66.52;102235.63;4993161;28;20429;-69
2024/01/21 00:21:45;;;;;;;8.70;6.90;;;;;;;-1.02;66.64;102217.28;4995318;28;20501;-69
2024/01/21 00:24:10;;;;;;;10.73;7.80;;;;;;;-0.95;66.64;102234.72;4994633;28;20034;-70
2024/01/21 00:26:36;;;;;;;9.90;7.17;;;;;;;-1.01;66.10;102232.06;4998215;28;20148;-70
2024/01/21 00:29:02;;;;;;;8.03;6.53;;;;;;;-1.02;65.44;102228.59;5002368;28;20034;-70
2024/01/21 00:31:27;;;;;;;12.53;7.60;;;;;;;-1.40;65.60;102157.84;5010318;28;20460;-70
2024/01/21 00:33:53;;;;;;;9.53;7.00;;;;;;;-1.10;65.25;102213.75;5008138;28;20097;-70
2024/01/21 00:36:21;;;;;;;7.73;6.73;;;;;;;-1.08;65.63;102217.25;5009263;28;20099;-70
2024/01/21 00:38:47;;;;;;;10.87;8.00;;;;;;;-1.13;64.92;102205.88;5010256;28;20033;-70
2024/01/21 00:41:16;;;;;;;8.13;6.90;;;;;;;-1.11;65.54;102206.78;5008163;28;20021;-70
2024/01/21 00:43:41;;;;;;;13.00;8.03;;;;;;;-1.18;65.43;102206.75;5008449;28;20025;-70
2024/01/21 00:46:09;;;;;;;11.70;7.67;;;;;;;-1.12;65.63;102213.72;5010038;28;20131;-70
2024/01/21 00:48:35;;;;;;;13.70;7.30;;;;;;;-1.15;65.20;102214.59;5007504;28;20708;-70
2024/01/21 00:51:01;;;;;;;10.70;7.73;;;;;;;-1.17;65.59;102218.91;5009371;28;20110;-70
2024/01/21 00:53:26;;;;;;;9.73;8.13;;;;;;;-1.22;65.46;102220.63;5008598;28;20030;-70
2024/01/21 00:55:52;;;;;;;15.83;8.03;;;;;;;-1.20;66.69;102225.84;5009693;28;20053;-70
2024/01/21 00:58:18;;;;;;;11.70;8.10;;;;;;;-1.31;66.07;102201.41;5009163;28;20100;-70
2024/01/21 01:00:43;;;;;;;9.37;7.80;;;;;;;-1.21;66.83;102214.53;5009874;28;20113;-70
2024/01/21 01:03:08;;;;;;;11.23;9.00;;;;;;;-1.21;66.17;102206.69;5010296;28;20030;-70
2024/01/21 01:05:34;;;;;;;10.37;8.03;;;;;;;-1.22;67.02;102189.28;5010229;28;20033;-70
2024/01/21 01:07:59;;;;;;;10.47;7.93;;;;;;;-1.23;66.23;102186.69;5008362;28;20061;-70
2024/01/21 01:10:25;;;;;;;11.40;7.90;;;;;;;-1.29;65.73;102177.06;5007419;28;20508;-70
2024/01/21 01:12:50;;;;;;;8.87;7.77;;;;;;;-1.28;65.69;102185.78;5008175;28;20101;-70
2024/01/21 01:15:15;;;;;;;13.27;8.73;;;;;;;-1.39;66.41;102170.88;5008659;28;20036;-70
2024/01/21 01:17:41;;;;;;;12.30;8.77;;;;;;;-1.37;66.05;102170.91;4992520;28;20065;-70
2024/01/21 01:20:07;;;;;;;12.87;8.23;;;;;;;-1.47;66.50;102156.03;5007119;28;20092;-70
2024/01/21 01:22:33;;;;;;;12.97;9.03;;;;;;;-1.42;66.56;102150.00;5004516;28;20488;-70
2024/01/21 01:24:58;;;;;;;11.50;8.67;;;;;;;-1.40;66.49;102139.59;5009110;28;20041;-70
2024/01/21 01:27:24;;;;;;;10.73;7.77;;;;;;;-1.39;66.84;102143.94;5001051;28;20046;-70
2024/01/21 01:29:50;;;;;;;16.53;9.17;;;;;;;-1.38;66.32;102140.47;5008501;28;20769;-70
2024/01/21 01:32:16;;;;;;;12.07;9.10;;;;;;;-1.37;66.43;102139.59;5009596;28;20056;-70
2024/01/21 01:34:41;;;;;;;10.73;8.47;;;;;;;-1.39;66.31;102125.66;5013276;28;20497;-70
2024/01/21 01:37:09;;;;;;;10.67;8.10;;;;;;;-1.41;67.49;102128.28;5012087;28;20029;-70
2024/01/21 01:39:35;;;;;;;13.70;9.03;;;;;;;-1.42;66.86;102117.81;5013140;28;20402;-70
2024/01/21 01:42:04;;;;;;;11.90;8.93;;;;;;;-1.42;66.21;102118.69;5012475;28;20034;-70
2024/01/21 01:44:29;;;;;;;12.17;8.60;;;;;;;-1.44;66.81;102109.09;5013348;28;20112;-69
2024/01/21 01:46:55;;;;;;;8.73;7.83;;;;;;;-1.45;65.74;102105.63;5011438;28;20503;-70
2024/01/21 01:49:21;;;;;;;13.63;8.90;;;;;;;-1.40;66.08;102100.44;5012613;28;20118;-70
2024/01/21 01:51:47;;;;;;;14.93;8.80;;;;;;;-1.41;65.62;102086.53;5011457;28;20030;-70
2024/01/21 01:54:16;;;;;;;10.97;8.40;;;;;;;-1.42;66.28;102087.38;5013073;28;20432;-69
2024/01/21 01:56:42;;;;;;;8.83;8.00;;;;;;;-1.42;65.49;102081.28;5011522;28;20036;-70
2024/01/21 01:59:10;;;;;;;10.53;7.17;;;;;;;-1.37;65.21;102084.81;5012905;28;20104;-70
2024/01/21 02:01:39;;;;;;;13.63;6.93;;;;;;;-1.37;65.14;102087.41;5012766;28;20033;-70
2024/01/21 02:04:08;;;;;;;12.27;8.00;;;;;;;-1.45;66.04;102068.22;5015187;28;20396;-70
2024/01/21 02:06:34;;;;;;;9.45;7.25;;;;;;;-1.36;64.92;102076.09;5011677;28;20052;-70
2024/01/21 02:08:59;;;;;;;9.33;7.73;;;;;;;-1.33;65.12;102073.50;5012826;28;20062;-70
2024/01/21 02:11:25;;;;;;;10.10;7.60;;;;;;;-1.41;65.17;102042.19;5012130;28;20022;-70
2024/01/21 02:13:52;;;;;;;10.33;7.30;;;;;;;-1.32;64.00;102061.34;5011698;28;20044;-70
2024/01/21 02:16:18;;;;;;;9.23;7.80;;;;;;;-1.36;64.95;102050.00;5011487;28;20026;-70
2024/01/21 02:18:46;;;;;;;8.10;7.30;;;;;;;-1.37;63.98;102045.66;5012784;28;20397;-70
2024/01/21 02:21:12;;;;;;;7.77;6.97;;;;;;;-1.40;64.19;102033.47;5012557;28;20041;-70
2024/01/21 02:23:38;;;;;;;7.80;7.00;;;;;;;-1.36;63.94;102039.56;5012219;28;20029;-69
2024/01/21 02:26:03;;;;;;;7.67;6.80;;;;;;;-1.32;63.90;102046.56;4993711;28;20041;-69
2024/01/21 02:28:29;;;;;;;10.80;7.30;;;;;;;-1.28;63.23;102037.03;5012015;28;20049;-70
2024/01/21 02:30:54;;;;;;;8.40;7.33;;;;;;;-1.24;63.85;102025.72;5012110;28;20048;-70
2024/01/21 02:33:20;;;;;;;10.33;7.10;;;;;;;-1.25;63.10;102022.25;5010785;28;20773;-70
2024/01/21 02:35:45;;;;;;;10.97;6.77;;;;;;;-1.24;62.95;102004.84;5011805;28;20068;-70
2024/01/21 02:38:11;;;;;;;10.13;6.97;;;;;;;-1.18;62.83;102010.09;5012115;28;20445;-70
2024/01/21 02:40:37;;;;;;;8.20;6.43;;;;;;;-1.22;62.09;101996.16;5009872;28;20137;-69
2024/01/21 02:43:04;;;;;;;7.77;6.33;;;;;;;-1.11;61.65;102006.66;5010919;28;20042;-69
2024/01/21 02:45:30;;;;;;;9.10;6.70;;;;;;;-1.12;61.20;101991.84;5013683;28;20541;-69
2024/01/21 02:47:55;;;;;;;6.83;6.17;;;;;;;-1.10;62.02;101989.25;5012277;28;20108;-70
2024/01/21 02:50:21;;;;;;;8.07;7.23;;;;;;;-1.04;62.29;102000.56;5011514;28;20022;-70
2024/01/21 02:52:46;;;;;;;9.53;6.87;;;;;;;-0.99;62.12;102004.06;5011644;28;20440;-69
2024/01/21 02:55:11;;;;;;;8.53;6.53;;;;;;;-1.02;61.60;102000.59;5011927;28;20133;-69
2024/01/21 02:57:37;;;;;;;9.53;6.37;;;;;;;-0.96;61.86;102008.44;5011527;28;20088;-69
2024/01/21 03:00:04;;;;;;;7.23;6.50;;;;;;;-0.93;62.61;102006.72;5011691;28;20040;-69
2024/01/21 03:02:30;;;;;;;10.27;7.37;;;;;;;-0.91;61.23;102004.13;5011322;28;20026;-69
2024/01/21 03:04:56;;;;;;;6.97;6.27;;;;;;;-0.87;61.88;102000.63;5011494;28;20061;-69
2024/01/21 03:07:21;;;;;;;10.73;6.90;;;;;;;-0.94;60.99;101980.59;5010231;28;20409;-69
2024/01/21 03:09:47;;;;;;;8.40;7.37;;;;;;;-0.85;61.41;101982.34;5011244;28;20048;-69
2024/01/21 03:12:14;;;;;;;8.27;6.67;;;;;;;-0.83;61.15;101976.25;5011059;28;20495;-69
2024/01/21 03:14:40;;;;;;;7.97;7.00;;;;;;;-0.83;60.95;101972.78;5010259;28;20021;-69
2024/01/21 03:17:07;;;;;;;7.67;6.60;;;;;;;-0.86;61.07;101962.31;5009623;28;20037;-69
2024/01/21 03:19:33;;;;;;;7.53;6.80;;;;;;;-0.86;61.55;101976.25;5010144;28;20659;-69
2024/01/21 03:21:58;;;;;;;7.80;6.77;;;;;;;-0.88;62.58;101977.09;5010828;28;20091;-69
2024/01/21 03:24:24;;;;;;;8.70;6.73;;;;;;;-0.87;62.43;101979.75;5009579;28;20057;-69
2024/01/21 03:26:49;;;;;;;8.00;6.17;;;;;;;-0.86;61.92;101978.00;5010678;28;20045;-69
2024/01/21 03:29:15;;;;;;;8.07;6.87;;;;;;;-0.89;62.15;101970.16;5010718;28;20029;-69
2024/01/21 03:31:40;;;;;;;7.57;6.50;;;;;;;-0.89;62.40;101973.63;5011395;28;20017;-69
2024/01/21 03:34:05;;;;;;;7.13;6.37;;;;;;;-0.88;62.08;101971.88;5011047;28;20037;-69
2024/01/21 03:36:31;;;;;;;7.23;6.53;;;;;;;-0.90;63.06;101957.97;5009678;28;21248;-69
2024/01/21 03:38:56;;;;;;;6.83;6.10;;;;;;;-0.97;62.59;101949.25;5006064;28;20030;-69
2024/01/21 03:41:22;;;;;;;7.90;6.97;;;;;;;-0.90;63.40;101965.81;4991563;28;20030;-70
2024/01/21 03:43:47;;;;;;;9.40;6.63;;;;;;;-0.89;62.72;101952.75;4993788;28;20065;-69
2024/01/21 03:46:15;;;;;;;7.23;6.47;;;;;;;-0.89;63.68;101955.34;5009625;28;20394;-69
2024/01/21 03:48:43;;;;;;;7.30;6.30;;;;;;;-0.99;62.99;101933.59;4992146;28;20474;-69
2024/01/21 03:51:11;;;;;;;13.07;7.60;;;;;;;-0.86;64.34;101964.94;4993556;28;20153;-70
2024/01/21 03:53:39;;;;;;;6.67;6.07;;;;;;;-0.86;63.42;101951.88;4999177;28;20033;-69
2024/01/21 03:56:06;;;;;;;7.57;6.47;;;;;;;-0.88;63.21;101944.06;4991750;28;20026;-69
2024/01/21 03:58:31;;;;;;;7.77;6.23;;;;;;;-1.17;63.73;101869.16;4992435;28;20033;-69
2024/01/21 04:00:57;;;;;;;6.73;6.10;;;;;;;-0.88;64.38;101917.06;4990777;28;20049;-69
2024/01/21 04:03:22;;;;;;;7.77;5.97;;;;;;;-0.85;63.97;101906.59;4991967;28;20085;-69
2024/01/21 04:05:47;;;;;;;6.00;5.50;;;;;;;-0.78;63.64;101916.22;4998051;28;20037;-69
2024/01/21 04:08:13;;;;;;;6.20;5.60;;;;;;;-0.84;64.02;101896.19;5007904;28;20040;-69
2024/01/21 04:10:39;;;;;;;9.40;7.20;;;;;;;-0.73;63.98;101896.19;5006408;28;20836;-69
2024/01/21 04:13:05;;;;;;;7.40;6.33;;;;;;;-0.74;64.02;101890.06;5008388;28;20477;-69
2024/01/21 04:15:30;;;;;;;8.47;6.17;;;;;;;-0.73;64.10;101894.44;5005643;28;20034;-69
2024/01/21 04:18:00;;;;;;;7.20;5.63;;;;;;;-0.72;63.72;101905.75;5001098;28;20034;-69
2024/01/21 04:20:25;;;;;;;;;;;;;;;-0.69;65.01;101914.47;5004170;28;20021;-69
2024/01/21 04:22:53;;;;;;;14.60;6.90;;;;;;;-0.66;64.28;101931.88;4993632;28;20344;-69
2024/01/21 04:25:21;;;;;;;7.70;6.80;;;;;;;-0.71;63.95;101905.78;4992613;28;20034;-69
2024/01/21 04:27:48;;;;;;;7.20;6.50;;;;;;;-0.66;64.29;101918.81;4990432;28;20382;-69
2024/01/21 04:30:14;;;;;;;8.00;6.50;;;;;;;-0.63;64.45;101912.75;5010023;28;20025;-69
2024/01/21 04:32:39;;;;;;;6.33;5.70;;;;;;;-0.58;64.62;101909.25;5008880;28;20099;-69
2024/01/21 04:35:07;;;;;;;7.57;6.20;;;;;;;-0.64;64.48;101888.34;5008343;28;20030;-69
2024/01/21 04:37:32;;;;;;;7.40;6.47;;;;;;;-0.52;64.84;101885.75;5010393;28;20084;-69
2024/01/21 04:39:58;;;;;;;9.40;6.27;;;;;;;-0.49;64.85;101879.66;5009329;28;20026;-69
2024/01/21 04:42:23;;;;;;;7.07;6.33;;;;;;;-0.39;64.32;101849.13;5009691;28;20034;-69
2024/01/21 04:44:49;;;;;;;7.40;6.23;;;;;;;-0.29;64.32;101848.25;5010446;28;20496;-69
2024/01/21 04:47:14;;;;;;;9.70;6.70;;;;;;;-0.22;63.67;101846.50;5010284;28;20477;-69
2024/01/21 04:49:39;;;;;;;8.67;6.57;;;;;;;-0.24;63.18;101842.16;5010047;28;20100;-69
2024/01/21 04:52:08;;;;;;;7.60;6.70;;;;;;;-0.25;64.60;101814.25;5010230;28;20532;-69
2024/01/21 04:54:33;;;;;;;8.30;7.43;;;;;;;-0.23;64.50;101806.44;5010393;28;20528;-69
2024/01/21 04:56:59;;;;;;;9.70;6.70;;;;;;;-0.10;63.58;101817.69;5009953;28;20034;-69
2024/01/21 04:59:24;;;;;;;8.80;7.43;;;;;;;-0.03;63.69;101811.56;5010127;28;20428;-69
2024/01/21 05:01:50;;;;;;;7.63;6.83;;;;;;;-0.06;63.91;101803.72;5010084;28;20022;-69
2024/01/21 05:04:17;;;;;;;9.23;7.47;;;;;;;0.02;63.13;101788.88;5009932;28;20027;-69
2024/01/21 05:06:43;;;;;;;13.63;9.10;;;;;;;-0.03;63.15;101788.03;5011970;28;20040;-69
2024/01/21 05:09:10;;;;;;;9.57;8.13;;;;;;;0.09;62.91;101803.69;5013970;28;20022;-69
2024/01/21 05:11:36;;;;;;;13.43;7.57;;;;;;;0.15;63.32;101808.03;5013425;28;20075;-69
2024/01/21 05:14:01;;;;;;;11.23;8.63;;;;;;;0.14;63.38;101812.38;5013681;28;20116;-69
2024/01/21 05:16:27;;;;;;;10.83;6.73;;;;;;;0.17;63.17;101812.34;5013327;28;20030;-69
2024/01/21 05:18:52;;;;;;;8.23;7.27;;;;;;;0.26;63.00;101815.81;5012011;28;20101;-69
2024/01/21 05:21:21;;;;;;;10.23;8.00;;;;;;;0.28;62.62;101821.91;5012103;28;20037;-69
2024/01/21 05:23:53;;;;;;;19.83;9.00;;;;;;;0.24;62.67;101815.84;5012191;28;20088;-69
2024/01/21 05:26:21;;;;;;;15.03;9.13;;;;;;;0.27;62.52;101820.19;5012880;28;20017;-69
2024/01/21 05:28:46;;;;;;;11.37;7.93;;;;;;;0.30;62.60;101807.09;5012259;28;20509;-69
2024/01/21 05:31:12;;;;;;;10.23;7.33;;;;;;;0.28;63.22;101804.47;5012595;28;20048;-69
2024/01/21 05:33:40;;;;;;;13.73;7.77;;;;;;;0.42;62.40;101797.41;5013385;28;20100;-69
2024/01/21 05:36:06;;;;;;;9.67;8.03;;;;;;;0.29;63.21;101795.72;5012191;28;20033;-69
2024/01/21 05:38:31;;;;;;;11.90;7.47;;;;;;;0.42;62.65;101797.41;5002423;28;20057;-69
2024/01/21 05:40:59;;;;;;;9.50;7.97;;;;;;;0.40;62.99;101827.94;4994411;28;20397;-69
2024/01/21 05:43:24;;;;;;;13.10;8.30;;;;;;;0.40;62.25;101804.38;4993584;28;20034;-69
2024/01/21 05:45:50;;;;;;;10.67;7.70;;;;;;;0.48;62.49;101809.59;4995698;28;20037;-69
2024/01/21 05:48:15;;;;;;;10.53;7.97;;;;;;;0.42;63.36;101802.66;5010637;28;20034;-69
2024/01/21 05:50:40;;;;;;;8.27;6.90;;;;;;;0.36;62.64;101802.69;4994700;28;20084;-69
2024/01/21 05:53:10;;;;;;;13.43;9.17;;;;;;;0.37;62.94;101795.69;5011715;28;20026;-69
2024/01/21 05:55:35;;;;;;;10.93;8.23;;;;;;;0.43;63.18;101788.66;5012893;28;20042;-69
2024/01/21 05:58:00;;;;;;;8.20;7.30;;;;;;;0.52;62.24;101799.97;5012999;28;20276;-69
2024/01/21 06:00:26;;;;;;;11.13;8.43;;;;;;;0.52;62.76;101800.81;5012343;28;20021;-69
2024/01/21 06:02:52;;;;;;;10.47;7.63;;;;;;;0.54;62.79;101814.78;5012362;28;20578;-69
2024/01/21 06:05:17;;;;;;;8.47;7.50;;;;;;;0.54;62.00;101811.31;5012612;28;20378;-69
2024/01/21 06:07:44;;;;;;;11.23;7.60;;;;;;;0.56;62.07;101799.94;5012871;28;20061;-69
2024/01/21 06:10:10;;;;;;;9.33;8.27;;;;;;;0.52;62.72;101794.72;5012610;28;20025;-69
2024/01/21 06:12:36;;;;;;;9.87;7.60;;;;;;;0.50;62.44;101784.28;5011071;28;20029;-69
2024/01/21 06:15:01;;;;;;;10.33;7.83;;;;;;;0.50;62.75;101791.25;5012541;28;20033;-69
2024/01/21 06:17:27;;;;;;;10.07;7.53;;;;;;;0.61;61.52;101789.44;5012236;28;20057;-69
2024/01/21 06:19:52;;;;;;;12.23;8.07;;;;;;;0.55;62.08;101798.19;5012518;28;20029;-69
2024/01/21 06:22:18;;;;;;;7.57;6.23;;;;;;;0.60;62.23;101801.66;5011828;28;20030;-69
2024/01/21 06:24:43;;;;;;;11.47;7.83;;;;;;;0.61;61.58;101828.69;5012759;28;20036;-69
2024/01/21 06:27:09;;;;;;;9.63;8.47;;;;;;;0.70;61.58;101826.03;5011748;28;20029;-68
2024/01/21 06:29:34;;;;;;;10.47;8.03;;;;;;;0.59;61.72;101805.16;5012611;28;20042;-69
2024/01/21 06:32:02;;;;;;;10.03;7.57;;;;;;;0.62;61.64;101799.91;5011577;28;20401;-69
2024/01/21 06:34:28;;;;;;;8.43;7.13;;;;;;;0.76;62.20;101822.50;5011238;28;20053;-69
2024/01/21 06:36:53;;;;;;;9.67;7.43;;;;;;;0.69;61.30;101808.59;5012330;28;20018;-69
2024/01/21 06:39:18;;;;;;;11.40;8.03;;;;;;;0.66;62.47;101814.69;5012186;28;20018;-70
2024/01/21 06:41:46;;;;;;;9.60;7.27;;;;;;;0.68;62.19;101810.34;5008507;28;20801;-70
2024/01/21 06:44:11;;;;;;;10.47;7.33;;;;;;;0.69;61.68;101813.81;5012127;28;20369;-69
2024/01/21 06:46:39;;;;;;;8.50;7.60;;;;;;;0.66;61.73;101817.31;5011992;28;20033;-69
2024/01/21 06:49:05;;;;;;;11.33;7.20;;;;;;;0.75;61.57;101800.69;5012075;28;20919;-69
2024/01/21 06:51:46;;;;;;;8.70;7.57;;;;;;;0.76;61.09;101815.50;5010809;28;20105;-69
2024/01/21 06:54:14;;;;;;;8.70;7.27;;;;;;;0.81;61.09;101811.09;5010608;28;20037;-69
2024/01/21 06:56:40;;;;;;;11.07;7.47;;;;;;;0.75;60.46;101821.63;5010192;28;20025;-69
2024/01/21 06:59:05;;;;;;;7.63;6.93;;;;;;;0.71;61.15;101809.44;5011527;28;20026;-70
2024/01/21 07:01:31;;;;;;;9.03;7.80;;;;;;;0.82;61.27;101825.06;5011228;28;20117;-69
2024/01/21 07:03:56;;;;;;;11.07;7.10;;;;;;;0.81;60.36;101831.19;5008460;28;20034;-69
2024/01/21 07:06:22;;;;;;;12.17;6.93;;;;;;;0.81;60.42;101786.69;5011300;28;20101;-69
2024/01/21 07:08:47;;;;;;;10.17;7.40;;;;;;;0.83;60.38;101787.56;5011158;28;20385;-69
2024/01/21 07:11:13;;;;;;;11.80;7.90;;;;;;;0.85;59.67;101791.00;5010873;28;20042;-69
2024/01/21 07:13:39;;;;;;;10.90;7.87;;;;;;;0.85;60.09;101768.34;5011213;28;20026;-69
2024/01/21 07:16:04;;;;;;;12.23;7.63;;;;;;;0.87;60.46;101769.16;5011400;28;20022;-69
2024/01/21 07:18:30;;;;;;;10.83;8.03;;;;;;;0.94;59.06;101779.59;5011288;28;20141;-69
2024/01/21 07:20:57;;;;;;;7.97;7.00;;;;;;;0.93;59.07;101770.88;5011649;28;20443;-69
2024/01/21 07:23:23;;;;;;;7.77;6.93;;;;;;;0.96;59.28;101772.59;5010847;28;20033;-69
2024/01/21 07:25:48;;;;;;;9.40;7.37;;;;;;;0.97;58.18;101779.56;5011316;28;20160;-69
2024/01/21 07:28:16;;;;;;;8.63;7.07;;;;;;;1.00;58.92;101767.34;5009817;28;20038;-69
2024/01/21 07:30:41;;;;;;;10.17;7.80;;;;;;;0.92;58.41;101763.03;5007791;28;20029;-69
2024/01/21 07:33:07;;;;;;;9.73;7.23;;;;;;;0.95;58.78;101753.41;5003015;28;20079;-69
2024/01/21 07:35:32;;;;;;;10.10;7.40;;;;;;;0.92;58.52;101763.03;5010116;28;20032;-69
2024/01/21 07:37:58;;;;;;;9.97;7.17;;;;;;;0.98;58.65;101763.84;5010978;28;20437;-69
2024/01/21 07:40:24;;;;;;;10.10;7.23;;;;;;;0.85;58.93;101751.72;5009407;28;20022;-69
2024/01/21 07:42:49;;;;;;;12.70;8.30;;;;;;;0.95;58.94;101770.88;5010915;28;20022;-69
2024/01/21 07:45:15;;;;;;;9.27;6.63;;;;;;;0.91;58.62;101770.00;5010485;28;20029;-69
2024/01/21 07:47:40;;;;;;;10.53;7.27;;;;;;;0.91;58.17;101772.63;5010852;28;20481;-69
2024/01/21 07:50:07;;;;;;;9.33;7.60;;;;;;;0.89;58.68;101797.97;5002077;28;20029;-69
2024/01/21 07:52:35;;;;;;;7.13;5.90;;;;;;;0.92;58.84;101781.38;4999900;28;20447;-69
2024/01/21 07:55:03;;;;;;;8.90;6.73;;;;;;;0.86;58.76;101788.38;5000757;28;20144;-69
2024/01/21 07:57:28;;;;;;;9.83;7.53;;;;;;;0.93;58.71;101802.28;5006317;28;20481;-69
2024/01/21 07:59:53;;;;;;;11.00;7.73;;;;;;;0.93;59.08;101810.16;5003290;28;20080;-69
2024/01/21 08:02:27;;;;;;;10.97;7.40;;;;;;;0.92;58.68;101812.78;4999208;28;20093;-70
2024/01/21 08:04:55;;;;;;;8.57;6.93;;;;;;;0.93;58.70;101827.63;5001006;28;20401;-69
2024/01/21 08:07:20;;;;;;;8.03;7.00;;;;;;;0.85;58.54;101833.78;5009917;28;20029;-69
2024/01/21 08:09:46;;;;;;;9.10;6.90;;;;;;;0.92;59.49;101852.06;5010024;28;20488;-69
2024/01/21 08:12:11;;;;;;;8.80;6.47;;;;;;;0.93;59.74;101869.53;5010696;28;20100;-69
2024/01/21 08:14:36;;;;;;;8.20;7.13;;;;;;;0.94;59.49;101855.53;5011452;28;20030;-69
2024/01/21 08:17:02;;;;;;;10.37;7.87;;;;;;;1.03;59.75;101877.31;5009310;28;20140;-69
2024/01/21 08:19:28;;;;;;;8.20;6.93;;;;;;;0.94;59.58;101845.91;5009242;28;20029;-68
2024/01/21 08:21:53;;;;;;;8.63;6.97;;;;;;;1.14;58.93;101877.22;5008689;28;20030;-69
2024/01/21 08:24:18;;;;;;;9.10;6.90;;;;;;;1.14;59.73;101875.47;5008883;28;20026;-68
2024/01/21 08:26:44;;;;;;;8.73;6.93;;;;;;;1.21;59.49;101880.69;5012234;28;20547;-68
2024/01/21 08:29:09;;;;;;;9.57;7.57;;;;;;;1.21;59.56;101880.69;5009388;28;20104;-68
2024/01/21 08:31:41;;;;;;;7.90;6.93;;;;;;;1.28;59.79;101880.59;5003934;28;20469;-68
2024/01/21 08:34:06;;;;;;;7.20;6.50;;;;;;;1.32;59.47;101868.34;4996676;28;20038;-69
2024/01/21 08:36:32;;;;;;;11.93;7.80;;;;;;;1.35;59.58;101858.72;4995403;28;20037;-68
2024/01/21 08:38:58;;;;;;;8.70;6.63;;;;;;;1.30;59.25;101842.16;5010397;28;20025;-69
2024/01/21 08:41:23;;;;;;;7.47;6.70;;;;;;;1.31;60.03;101850.88;5011500;28;20026;-69
2024/01/21 08:43:51;;;;;;;10.47;6.90;;;;;;;1.41;59.66;101852.53;5014743;28;20029;-68
2024/01/21 08:46:16;;;;;;;8.43;7.17;;;;;;;1.51;60.18;101840.22;5014802;28;20026;-69
2024/01/21 08:48:44;;;;;;;9.10;7.43;;;;;;;1.48;60.66;101837.63;5013028;28;20025;-69
2024/01/21 08:51:12;;;;;;;8.93;6.47;;;;;;;1.40;61.48;101823.72;5013880;28;20169;-69
2024/01/21 08:53:37;;;;;;;8.00;6.87;;;;;;;1.51;61.83;101845.47;5013492;28;20041;-69
2024/01/21 08:56:03;;;;;;;6.90;6.20;;;;;;;1.66;62.46;101857.56;5013110;28;20025;-69
2024/01/21 08:58:29;;;;;;;9.87;7.20;;;;;;;1.67;63.61;101869.78;5013011;28;20244;-69
2024/01/21 09:00:54;;;;;;;8.47;6.83;;;;;;;1.74;63.94;101866.22;5012352;28;20486;-69
2024/01/21 09:03:20;;;;;;;7.70;5.93;;;;;;;1.73;63.67;101854.84;5010503;28;20037;-69
2024/01/21 09:05:45;;;;;;;8.37;7.17;;;;;;;1.74;64.99;101866.22;5013270;28;20108;-69
2024/01/21 09:08:11;;;;;;;7.87;7.07;;;;;;;1.74;65.43;101863.59;5012926;28;20030;-69
2024/01/21 09:10:36;;;;;;;8.60;7.43;;;;;;;1.67;66.56;101878.50;5009954;28;20025;-69
2024/01/21 09:13:02;;;;;;;6.77;6.20;;;;;;;1.66;66.32;101873.28;4997487;28;20113;-69
2024/01/21 09:15:27;;;;;;;9.20;7.27;;;;;;;1.72;67.98;101871.47;4995523;28;20022;-69
2024/01/21 09:17:53;;;;;;;11.60;6.63;;;;;;;1.67;68.57;101875.88;5010240;28;20021;-69
2024/01/21 09:20:19;;;;;;;8.40;6.87;;;;;;;1.66;68.80;101879.41;5003264;28;20382;-68
2024/01/21 09:22:45;;;;;;;7.07;6.27;;;;;;;1.67;70.46;101878.50;4998315;28;20105;-69
2024/01/21 09:25:10;;;;;;;9.33;6.80;;;;;;;1.73;71.56;101898.56;5005652;28;20105;-69
2024/01/21 09:27:36;;;;;;;7.97;7.10;;;;;;;1.64;72.54;101882.91;5002956;28;20043;-69
2024/01/21 09:30:01;;;;;;;8.40;7.47;;;;;;;1.81;72.80;101902.00;5007409;28;20022;-68
2024/01/21 09:32:28;;;;;;;8.43;7.30;;;;;;;1.71;74.55;101890.72;5011965;28;20014;-67
2024/01/21 09:34:55;;;;;;;8.43;7.43;;;;;;;1.69;75.03;101902.09;5013182;28;20034;-67
2024/01/21 09:37:21;;;;;;;8.97;6.73;;;;;;;1.72;74.01;101888.97;5011856;28;20022;-67
2024/01/21 09:39:46;;;;;;;9.27;7.63;;;;;;;1.74;75.80;101914.28;5012144;28;20018;-67
2024/01/21 09:42:16;;;;;;;7.57;6.70;;;;;;;1.71;76.43;101918.72;5012912;28;20436;-68
2024/01/21 09:44:42;;;;;;;8.63;7.00;;;;;;;1.69;77.85;101912.59;5012377;28;20112;-68
2024/01/21 09:47:09;;;;;;;12.13;7.50;;;;;;;1.88;77.46;101913.28;5012132;28;20021;-68
2024/01/21 09:49:37;;;;;;;10.10;8.03;;;;;;;1.72;79.83;101902.06;5011334;28;20156;-69
2024/01/21 09:52:04;;;;;;;7.00;6.23;;;;;;;1.78;80.02;101915.13;5011038;28;20433;-68
2024/01/21 09:54:30;;;;;;;7.17;6.53;;;;;;;1.76;80.49;101904.63;5010235;28;20026;-68
2024/01/21 09:56:55;;;;;;;16.77;7.13;;;;;;;1.67;81.45;101878.50;5010903;28;20547;-69
2024/01/21 09:59:21;;;;;;;9.00;7.80;;;;;;;1.86;81.58;101896.72;5011309;28;20101;-69
2024/01/21 10:01:47;;;;;;;8.40;7.27;;;;;;;1.79;81.78;101899.41;5010945;28;20022;-67
2024/01/21 10:04:15;;;;;;;7.93;7.13;;;;;;;1.85;81.60;101908.06;5004760;28;20033;-67
2024/01/21 10:06:41;;;;;;;7.67;6.67;;;;;;;1.76;83.52;101909.03;5005188;28;20029;-63
2024/01/21 10:09:14;;;;;;;10.47;8.23;;;;;;;1.75;84.00;101905.53;5010316;28;20109;-71
2024/01/21 10:11:40;;;;;;;10.90;7.07;;;;;;;1.76;84.59;101903.78;5010279;28;20026;-67
2024/01/21 10:14:06;;;;;;;9.80;7.37;;;;;;;1.77;84.48;101902.91;5010471;28;20029;-64
2024/01/21 10:16:31;;;;;;;8.63;7.60;;;;;;;1.77;85.06;101897.66;5011364;28;20029;-65
2024/01/21 10:19:00;;;;;;;9.30;7.10;;;;;;;1.80;85.90;101903.75;5012355;28;20034;-69
2024/01/21 10:21:25;;;;;;;15.53;7.67;;;;;;;1.82;86.11;101885.34;5002212;28;20035;-64
2024/01/21 10:23:51;;;;;;;8.57;6.80;;;;;;;1.81;86.41;101868.75;4995301;28;20026;-70
2024/01/21 10:26:16;;;;;;;7.27;6.30;;;;;;;1.92;86.14;101894.88;5010682;28;20023;-66
2024/01/21 10:28:42;;;;;;;8.87;7.37;;;;;;;1.90;87.58;101888.78;5004027;28;20065;-65
2024/01/21 10:31:08;;;;;;;14.17;8.27;;;;;;;1.89;87.52;101870.44;5010972;28;20021;-68
2024/01/21 10:33:33;;;;;;;7.70;6.93;;;;;;;1.97;87.48;101881.69;5005169;28;20033;-62
2024/01/21 10:36:02;;;;;;;8.83;6.60;;;;;;;1.99;87.21;101872.06;5026977;28;20117;-60
2024/01/21 10:38:31;;;;;;;7.63;6.80;;;;;;;1.99;87.00;101878.19;4987685;28;20477;-65
2024/01/21 10:40:59;;;;;;;9.52;7.13;;;;;;;2.00;87.62;101868.56;5005008;28;20018;-63
2024/01/21 10:43:25;;;;;;;10.20;8.03;;;;;;;1.99;87.79;101846.69;5005337;28;20022;-62
2024/01/21 10:45:52;;;;;;;10.37;7.50;;;;;;;2.15;86.56;101862.28;5000784;28;20071;-61
2024/01/21 10:48:20;;;;;;;12.93;7.57;;;;;;;2.14;87.14;101837.78;5000460;28;20724;-63
2024/01/21 10:50:46;;;;;;;8.67;7.47;;;;;;;2.27;86.10;101839.38;5001202;28;20171;-63
2024/01/21 10:53:13;;;;;;;10.57;7.80;;;;;;;2.20;86.96;101842.09;5004561;28;20018;-62
2024/01/21 10:55:42;;;;;;;12.53;7.90;;;;;;;2.22;87.16;101825.44;5008467;28;20026;-63
2024/01/21 10:58:11;;;;;;;10.68;7.75;;;;;;;2.34;86.10;101840.16;5001089;28;20395;-63
2024/01/21 11:00:42;;;;;;;8.43;7.47;;;;;;;2.42;85.16;101840.94;4993408;28;20524;-63
2024/01/21 11:03:23;;;;;;;8.80;7.63;;;;;;;2.46;84.50;101826.84;5009378;28;20030;-63
2024/01/21 11:05:57;;;;;;;8.40;7.10;;;;;;;2.55;83.86;101818.00;5006216;28;20132;-63
2024/01/21 11:08:23;;;;;;;9.38;7.65;;;;;;;2.83;82.96;101821.09;5010914;28;20381;-63
2024/01/21 11:11:00;;;;;;;9.47;7.53;;;;;;;2.90;83.12;101827.97;5004998;28;20036;-62
2024/01/21 11:13:38;;;;;;;9.10;8.20;;;;;;;3.03;81.41;101820.78;5007759;28;20041;-67
2024/01/21 11:16:06;;;;;;;9.90;7.45;;;;;;;3.14;81.64;101818.81;5003749;28;20022;-67
2024/01/21 11:18:34;;;;;;;11.70;7.75;;;;;;;3.20;81.71;101844.16;5007266;28;20029;-66
2024/01/21 11:21:01;;;;;;;6.97;6.22;;;;;;;3.30;81.74;101866.78;5006429;28;20058;-64
2024/01/21 11:23:27;;;;;;;8.13;7.03;;;;;;;3.41;80.36;101864.84;5008958;28;20482;-65